sensor_id;sensor_type;location;lat;lon;timestamp;P1;durP1;ratioP1;P2;durP2;ratioP2
49510;SDS011;35413;48.776;9.204;2022-12-15T00:00:09;3.47;;;2.85;;
49510;SDS011;35413;48.776;9.204;2022-12-15T00:02:54;3.40;;;2.70;;
49510;SDS011;35413;48.776;9.204;2022-12-15T00:05:38;3.33;;;2.58;;
49510;SDS011;35413;48.776;9.204;2022-12-15T00:08:23;3.67;;;2.45;;
49510;SDS011;35413;48.776;9.204;2022-12-15T00:11:07;3.60;;;2.88;;
49510;SDS011;35413;48.776;9.204;2022-12-15T00:13:52;5.15;;;3.10;;
49510;SDS011;35413;48.776;9.204;2022-12-15T00:16:37;3.63;;;3.00;;
49510;SDS011;35413;48.776;9.204;2022-12-15T00:19:21;3.88;;;2.70;;
49510;SDS011;35413;48.776;9.204;2022-12-15T00:22:06;3.97;;;2.65;;
49510;SDS011;35413;48.776;9.204;2022-12-15T00:24:50;4.22;;;3.00;;
49510;SDS011;35413;48.776;9.204;2022-12-15T00:27:35;30.83;;;4.47;;
49510;SDS011;35413;48.776;9.204;2022-12-15T00:30:19;4.00;;;2.40;;
49510;SDS011;35413;48.776;9.204;2022-12-15T00:33:10;3.28;;;2.97;;
49510;SDS011;35413;48.776;9.204;2022-12-15T00:35:56;3.78;;;2.70;;
49510;SDS011;35413;48.776;9.204;2022-12-15T00:38:41;3.95;;;2.78;;
49510;SDS011;35413;48.776;9.204;2022-12-15T00:41:08;3.28;;;2.97;;
49510;SDS011;35413;48.776;9.204;2022-12-15T00:43:34;3.80;;;2.55;;
49510;SDS011;35413;48.776;9.204;2022-12-15T00:46:01;6.07;;;3.47;;
49510;SDS011;35413;48.776;9.204;2022-12-15T00:48:46;4.63;;;3.13;;
49510;SDS011;35413;48.776;9.204;2022-12-15T00:51:12;2.78;;;2.38;;
49510;SDS011;35413;48.776;9.204;2022-12-15T00:53:38;3.17;;;2.83;;
49510;SDS011;35413;48.776;9.204;2022-12-15T00:56:23;2.55;;;2.25;;
49510;SDS011;35413;48.776;9.204;2022-12-15T00:59:08;3.60;;;3.13;;
49510;SDS011;35413;48.776;9.204;2022-12-15T01:01:53;4.18;;;3.10;;
49510;SDS011;35413;48.776;9.204;2022-12-15T01:04:37;3.13;;;2.58;;
49510;SDS011;35413;48.776;9.204;2022-12-15T01:07:22;3.55;;;2.30;;
49510;SDS011;35413;48.776;9.204;2022-12-15T01:10:06;3.65;;;2.97;;
49510;SDS011;35413;48.776;9.204;2022-12-15T01:12:51;3.28;;;2.60;;
49510;SDS011;35413;48.776;9.204;2022-12-15T01:15:36;4.38;;;3.03;;
49510;SDS011;35413;48.776;9.204;2022-12-15T01:18:20;4.40;;;2.95;;
49510;SDS011;35413;48.776;9.204;2022-12-15T01:21:06;3.25;;;2.47;;
49510;SDS011;35413;48.776;9.204;2022-12-15T01:23:32;3.30;;;2.70;;
49510;SDS011;35413;48.776;9.204;2022-12-15T01:25:58;4.68;;;2.90;;
49510;SDS011;35413;48.776;9.204;2022-12-15T01:28:24;3.30;;;3.00;;
49510;SDS011;35413;48.776;9.204;2022-12-15T01:30:50;4.00;;;2.97;;
49510;SDS011;35413;48.776;9.204;2022-12-15T01:33:17;4.20;;;3.35;;
49510;SDS011;35413;48.776;9.204;2022-12-15T01:35:43;3.90;;;3.40;;
49510;SDS011;35413;48.776;9.204;2022-12-15T01:38:09;3.17;;;2.60;;
49510;SDS011;35413;48.776;9.204;2022-12-15T01:40:36;3.88;;;2.92;;
49510;SDS011;35413;48.776;9.204;2022-12-15T01:45:44;3.70;;;2.65;;
49510;SDS011;35413;48.776;9.204;2022-12-15T01:48:11;3.75;;;3.00;;
49510;SDS011;35413;48.776;9.204;2022-12-15T01:50:40;3.25;;;2.42;;
49510;SDS011;35413;48.776;9.204;2022-12-15T01:53:07;3.53;;;2.90;;
49510;SDS011;35413;48.776;9.204;2022-12-15T01:55:33;4.30;;;3.10;;
49510;SDS011;35413;48.776;9.204;2022-12-15T01:58:01;3.80;;;2.83;;
49510;SDS011;35413;48.776;9.204;2022-12-15T02:00:28;3.80;;;3.00;;
49510;SDS011;35413;48.776;9.204;2022-12-15T02:02:55;3.33;;;2.88;;
49510;SDS011;35413;48.776;9.204;2022-12-15T02:05:21;3.80;;;2.92;;
49510;SDS011;35413;48.776;9.204;2022-12-15T02:07:48;3.78;;;2.72;;
49510;SDS011;35413;48.776;9.204;2022-12-15T02:10:14;3.85;;;2.70;;
49510;SDS011;35413;48.776;9.204;2022-12-15T02:12:42;3.78;;;2.80;;
49510;SDS011;35413;48.776;9.204;2022-12-15T02:27:55;4.43;;;3.45;;
49510;SDS011;35413;48.776;9.204;2022-12-15T02:33:36;3.47;;;2.95;;
49510;SDS011;35413;48.776;9.204;2022-12-15T02:36:24;4.00;;;2.88;;
49510;SDS011;35413;48.776;9.204;2022-12-15T02:38:52;4.88;;;3.38;;
49510;SDS011;35413;48.776;9.204;2022-12-15T02:41:30;4.35;;;2.40;;
49510;SDS011;35413;48.776;9.204;2022-12-15T02:43:57;3.72;;;3.30;;
49510;SDS011;35413;48.776;9.204;2022-12-15T02:46:26;4.20;;;3.42;;
49510;SDS011;35413;48.776;9.204;2022-12-15T02:49:07;4.28;;;3.17;;
49510;SDS011;35413;48.776;9.204;2022-12-15T02:51:42;4.47;;;3.47;;
49510;SDS011;35413;48.776;9.204;2022-12-15T02:54:22;4.30;;;3.05;;
49510;SDS011;35413;48.776;9.204;2022-12-15T02:56:57;4.53;;;3.08;;
49510;SDS011;35413;48.776;9.204;2022-12-15T02:59:31;4.15;;;3.00;;
49510;SDS011;35413;48.776;9.204;2022-12-15T03:02:02;4.05;;;2.70;;
49510;SDS011;35413;48.776;9.204;2022-12-15T03:04:32;4.25;;;3.03;;
49510;SDS011;35413;48.776;9.204;2022-12-15T03:07:02;4.32;;;3.10;;
49510;SDS011;35413;48.776;9.204;2022-12-15T03:09:29;3.33;;;2.80;;
49510;SDS011;35413;48.776;9.204;2022-12-15T03:11:55;4.20;;;2.97;;
49510;SDS011;35413;48.776;9.204;2022-12-15T03:14:21;4.78;;;3.72;;
49510;SDS011;35413;48.776;9.204;2022-12-15T03:16:49;4.40;;;3.38;;
49510;SDS011;35413;48.776;9.204;2022-12-15T03:19:15;5.28;;;3.80;;
49510;SDS011;35413;48.776;9.204;2022-12-15T03:21:41;5.63;;;3.50;;
49510;SDS011;35413;48.776;9.204;2022-12-15T03:24:07;3.83;;;3.25;;
49510;SDS011;35413;48.776;9.204;2022-12-15T03:26:33;4.38;;;3.10;;
49510;SDS011;35413;48.776;9.204;2022-12-15T03:28:59;4.38;;;3.53;;
49510;SDS011;35413;48.776;9.204;2022-12-15T03:31:25;3.85;;;3.30;;
49510;SDS011;35413;48.776;9.204;2022-12-15T03:33:51;4.07;;;3.00;;
49510;SDS011;35413;48.776;9.204;2022-12-15T03:36:17;4.60;;;3.00;;
49510;SDS011;35413;48.776;9.204;2022-12-15T03:38:43;4.25;;;3.40;;
49510;SDS011;35413;48.776;9.204;2022-12-15T03:41:09;4.38;;;3.10;;
49510;SDS011;35413;48.776;9.204;2022-12-15T03:43:35;4.25;;;3.40;;
49510;SDS011;35413;48.776;9.204;2022-12-15T03:46:01;4.28;;;3.17;;
49510;SDS011;35413;48.776;9.204;2022-12-15T03:48:27;5.93;;;3.47;;
49510;SDS011;35413;48.776;9.204;2022-12-15T03:50:52;4.55;;;3.30;;
49510;SDS011;35413;48.776;9.204;2022-12-15T03:53:19;5.80;;;3.95;;
49510;SDS011;35413;48.776;9.204;2022-12-15T03:55:45;4.05;;;3.50;;
49510;SDS011;35413;48.776;9.204;2022-12-15T03:58:11;3.53;;;2.95;;
49510;SDS011;35413;48.776;9.204;2022-12-15T04:00:37;4.15;;;3.13;;
49510;SDS011;35413;48.776;9.204;2022-12-15T04:03:03;4.55;;;3.53;;
49510;SDS011;35413;48.776;9.204;2022-12-15T04:05:30;4.15;;;3.17;;
49510;SDS011;35413;48.776;9.204;2022-12-15T04:07:57;4.60;;;3.28;;
49510;SDS011;35413;48.776;9.204;2022-12-15T04:10:24;3.63;;;3.10;;
49510;SDS011;35413;48.776;9.204;2022-12-15T04:15:45;5.65;;;3.70;;
49510;SDS011;35413;48.776;9.204;2022-12-15T04:18:11;4.28;;;3.05;;
49510;SDS011;35413;48.776;9.204;2022-12-15T04:20:38;4.68;;;3.38;;
49510;SDS011;35413;48.776;9.204;2022-12-15T04:23:04;5.65;;;3.53;;
49510;SDS011;35413;48.776;9.204;2022-12-15T04:25:34;4.63;;;3.35;;
49510;SDS011;35413;48.776;9.204;2022-12-15T04:28:18;4.22;;;3.22;;
49510;SDS011;35413;48.776;9.204;2022-12-15T04:31:10;5.07;;;3.90;;
49510;SDS011;35413;48.776;9.204;2022-12-15T04:36:40;4.63;;;3.60;;
49510;SDS011;35413;48.776;9.204;2022-12-15T04:39:27;3.55;;;2.92;;
49510;SDS011;35413;48.776;9.204;2022-12-15T04:42:12;5.10;;;2.95;;
49510;SDS011;35413;48.776;9.204;2022-12-15T04:44:57;5.22;;;3.95;;
49510;SDS011;35413;48.776;9.204;2022-12-15T04:47:43;3.95;;;3.15;;
49510;SDS011;35413;48.776;9.204;2022-12-15T04:50:28;5.47;;;3.33;;
49510;SDS011;35413;48.776;9.204;2022-12-15T04:53:13;4.97;;;3.35;;
49510;SDS011;35413;48.776;9.204;2022-12-15T04:55:59;4.05;;;3.38;;
49510;SDS011;35413;48.776;9.204;2022-12-15T04:58:44;4.72;;;3.85;;
49510;SDS011;35413;48.776;9.204;2022-12-15T05:01:28;5.18;;;4.25;;
49510;SDS011;35413;48.776;9.204;2022-12-15T05:04:12;5.20;;;3.35;;
49510;SDS011;35413;48.776;9.204;2022-12-15T05:06:57;5.20;;;3.30;;
49510;SDS011;35413;48.776;9.204;2022-12-15T05:09:41;4.93;;;4.18;;
49510;SDS011;35413;48.776;9.204;2022-12-15T05:12:26;3.45;;;3.05;;
49510;SDS011;35413;48.776;9.204;2022-12-15T05:15:11;4.35;;;3.35;;
49510;SDS011;35413;48.776;9.204;2022-12-15T05:17:55;4.60;;;3.72;;
49510;SDS011;35413;48.776;9.204;2022-12-15T05:20:40;4.43;;;3.25;;
49510;SDS011;35413;48.776;9.204;2022-12-15T05:23:24;3.60;;;2.70;;
49510;SDS011;35413;48.776;9.204;2022-12-15T05:26:09;4.25;;;3.50;;
49510;SDS011;35413;48.776;9.204;2022-12-15T05:28:53;6.53;;;3.25;;
49510;SDS011;35413;48.776;9.204;2022-12-15T05:31:38;8.82;;;3.78;;
49510;SDS011;35413;48.776;9.204;2022-12-15T05:34:17;9.70;;;4.18;;
49510;SDS011;35413;48.776;9.204;2022-12-15T05:36:43;13.93;;;4.75;;
49510;SDS011;35413;48.776;9.204;2022-12-15T05:39:09;9.07;;;3.67;;
49510;SDS011;35413;48.776;9.204;2022-12-15T05:41:35;13.02;;;3.88;;
49510;SDS011;35413;48.776;9.204;2022-12-15T05:44:01;7.60;;;4.20;;
49510;SDS011;35413;48.776;9.204;2022-12-15T05:46:27;11.23;;;5.03;;
49510;SDS011;35413;48.776;9.204;2022-12-15T05:48:53;15.50;;;5.22;;
49510;SDS011;35413;48.776;9.204;2022-12-15T05:51:19;13.70;;;5.40;;
49510;SDS011;35413;48.776;9.204;2022-12-15T05:53:45;11.65;;;5.75;;
49510;SDS011;35413;48.776;9.204;2022-12-15T05:56:12;9.25;;;4.50;;
49510;SDS011;35413;48.776;9.204;2022-12-15T05:58:38;10.10;;;5.10;;
49510;SDS011;35413;48.776;9.204;2022-12-15T06:01:12;12.25;;;5.15;;
49510;SDS011;35413;48.776;9.204;2022-12-15T06:03:38;11.05;;;5.53;;
49510;SDS011;35413;48.776;9.204;2022-12-15T06:06:05;11.38;;;4.55;;
49510;SDS011;35413;48.776;9.204;2022-12-15T06:08:32;9.93;;;4.93;;
49510;SDS011;35413;48.776;9.204;2022-12-15T06:10:58;11.55;;;4.82;;
49510;SDS011;35413;48.776;9.204;2022-12-15T06:13:25;10.18;;;4.50;;
49510;SDS011;35413;48.776;9.204;2022-12-15T06:15:58;8.02;;;4.28;;
49510;SDS011;35413;48.776;9.204;2022-12-15T06:18:25;9.40;;;4.28;;
49510;SDS011;35413;48.776;9.204;2022-12-15T06:20:56;8.70;;;4.20;;
49510;SDS011;35413;48.776;9.204;2022-12-15T06:23:22;6.78;;;3.83;;
49510;SDS011;35413;48.776;9.204;2022-12-15T06:25:48;9.60;;;4.32;;
49510;SDS011;35413;48.776;9.204;2022-12-15T06:28:14;10.25;;;5.10;;
49510;SDS011;35413;48.776;9.204;2022-12-15T06:30:40;10.52;;;4.57;;
49510;SDS011;35413;48.776;9.204;2022-12-15T06:33:06;9.02;;;4.15;;
49510;SDS011;35413;48.776;9.204;2022-12-15T06:35:35;10.25;;;4.97;;
49510;SDS011;35413;48.776;9.204;2022-12-15T06:38:02;12.52;;;4.70;;
49510;SDS011;35413;48.776;9.204;2022-12-15T06:40:28;7.07;;;4.45;;
49510;SDS011;35413;48.776;9.204;2022-12-15T06:42:54;9.95;;;5.55;;
49510;SDS011;35413;48.776;9.204;2022-12-15T06:45:20;6.85;;;5.13;;
49510;SDS011;35413;48.776;9.204;2022-12-15T06:47:47;8.40;;;5.07;;
49510;SDS011;35413;48.776;9.204;2022-12-15T06:50:13;7.50;;;4.28;;
49510;SDS011;35413;48.776;9.204;2022-12-15T06:52:39;8.98;;;4.45;;
49510;SDS011;35413;48.776;9.204;2022-12-15T06:55:05;7.07;;;4.10;;
49510;SDS011;35413;48.776;9.204;2022-12-15T06:57:31;6.90;;;4.30;;
49510;SDS011;35413;48.776;9.204;2022-12-15T06:59:57;6.90;;;4.10;;
49510;SDS011;35413;48.776;9.204;2022-12-15T07:02:23;7.82;;;4.53;;
49510;SDS011;35413;48.776;9.204;2022-12-15T07:04:49;6.30;;;3.85;;
49510;SDS011;35413;48.776;9.204;2022-12-15T07:07:15;15.70;;;4.75;;
49510;SDS011;35413;48.776;9.204;2022-12-15T07:09:41;5.85;;;3.65;;
49510;SDS011;35413;48.776;9.204;2022-12-15T07:12:08;8.45;;;3.70;;
49510;SDS011;35413;48.776;9.204;2022-12-15T07:14:34;5.50;;;3.78;;
49510;SDS011;35413;48.776;9.204;2022-12-15T07:17:00;8.27;;;3.83;;
49510;SDS011;35413;48.776;9.204;2022-12-15T07:19:26;4.88;;;3.72;;
49510;SDS011;35413;48.776;9.204;2022-12-15T07:21:53;7.78;;;3.90;;
49510;SDS011;35413;48.776;9.204;2022-12-15T07:24:21;5.55;;;4.00;;
49510;SDS011;35413;48.776;9.204;2022-12-15T07:26:47;14.88;;;4.35;;
49510;SDS011;35413;48.776;9.204;2022-12-15T07:29:13;7.95;;;4.38;;
49510;SDS011;35413;48.776;9.204;2022-12-15T07:31:40;5.43;;;4.05;;
49510;SDS011;35413;48.776;9.204;2022-12-15T07:34:06;7.78;;;3.92;;
49510;SDS011;35413;48.776;9.204;2022-12-15T07:36:32;4.53;;;3.42;;
49510;SDS011;35413;48.776;9.204;2022-12-15T07:38:59;5.55;;;3.83;;
49510;SDS011;35413;48.776;9.204;2022-12-15T07:41:25;8.98;;;4.15;;
49510;SDS011;35413;48.776;9.204;2022-12-15T07:43:51;8.82;;;3.53;;
49510;SDS011;35413;48.776;9.204;2022-12-15T07:46:17;5.30;;;3.55;;
49510;SDS011;35413;48.776;9.204;2022-12-15T07:48:44;5.25;;;3.35;;
49510;SDS011;35413;48.776;9.204;2022-12-15T07:51:10;4.38;;;3.28;;
49510;SDS011;35413;48.776;9.204;2022-12-15T07:53:36;7.70;;;4.18;;
49510;SDS011;35413;48.776;9.204;2022-12-15T07:56:02;4.75;;;3.42;;
49510;SDS011;35413;48.776;9.204;2022-12-15T07:58:29;6.30;;;3.85;;
49510;SDS011;35413;48.776;9.204;2022-12-15T08:01:02;6.78;;;4.65;;
49510;SDS011;35413;48.776;9.204;2022-12-15T08:03:28;6.82;;;3.80;;
49510;SDS011;35413;48.776;9.204;2022-12-15T08:05:55;5.63;;;3.72;;
49510;SDS011;35413;48.776;9.204;2022-12-15T08:08:21;4.82;;;3.42;;
49510;SDS011;35413;48.776;9.204;2022-12-15T08:10:47;4.15;;;3.53;;
49510;SDS011;35413;48.776;9.204;2022-12-15T08:13:13;5.03;;;3.83;;
49510;SDS011;35413;48.776;9.204;2022-12-15T08:15:39;4.20;;;3.45;;
49510;SDS011;35413;48.776;9.204;2022-12-15T08:18:06;5.53;;;3.38;;
49510;SDS011;35413;48.776;9.204;2022-12-15T08:20:33;5.28;;;3.70;;
49510;SDS011;35413;48.776;9.204;2022-12-15T08:22:59;4.38;;;3.53;;
49510;SDS011;35413;48.776;9.204;2022-12-15T08:25:25;4.95;;;3.67;;
49510;SDS011;35413;48.776;9.204;2022-12-15T08:27:54;6.35;;;3.53;;
49510;SDS011;35413;48.776;9.204;2022-12-15T08:30:20;5.25;;;3.40;;
49510;SDS011;35413;48.776;9.204;2022-12-15T08:32:46;3.78;;;3.38;;
49510;SDS011;35413;48.776;9.204;2022-12-15T08:35:12;5.32;;;4.03;;
49510;SDS011;35413;48.776;9.204;2022-12-15T08:37:39;5.85;;;3.30;;
49510;SDS011;35413;48.776;9.204;2022-12-15T08:40:05;4.63;;;3.80;;
49510;SDS011;35413;48.776;9.204;2022-12-15T08:42:32;5.95;;;3.40;;
49510;SDS011;35413;48.776;9.204;2022-12-15T08:44:58;5.35;;;3.80;;
49510;SDS011;35413;48.776;9.204;2022-12-15T08:47:24;6.85;;;4.07;;
49510;SDS011;35413;48.776;9.204;2022-12-15T08:49:50;5.50;;;4.07;;
49510;SDS011;35413;48.776;9.204;2022-12-15T08:52:18;5.07;;;3.40;;
49510;SDS011;35413;48.776;9.204;2022-12-15T08:54:44;4.82;;;3.20;;
49510;SDS011;35413;48.776;9.204;2022-12-15T08:57:10;4.47;;;3.00;;
49510;SDS011;35413;48.776;9.204;2022-12-15T08:59:36;5.35;;;3.40;;
49510;SDS011;35413;48.776;9.204;2022-12-15T09:02:02;5.00;;;3.40;;
49510;SDS011;35413;48.776;9.204;2022-12-15T09:04:28;5.72;;;4.10;;
49510;SDS011;35413;48.776;9.204;2022-12-15T09:06:54;5.43;;;3.30;;
49510;SDS011;35413;48.776;9.204;2022-12-15T09:09:20;6.43;;;3.85;;
49510;SDS011;35413;48.776;9.204;2022-12-15T09:11:46;4.85;;;3.75;;
49510;SDS011;35413;48.776;9.204;2022-12-15T09:14:12;5.85;;;4.07;;
49510;SDS011;35413;48.776;9.204;2022-12-15T09:16:38;6.20;;;3.83;;
49510;SDS011;35413;48.776;9.204;2022-12-15T09:19:04;5.15;;;3.42;;
49510;SDS011;35413;48.776;9.204;2022-12-15T09:21:32;4.93;;;3.28;;
49510;SDS011;35413;48.776;9.204;2022-12-15T09:23:58;5.05;;;3.28;;
49510;SDS011;35413;48.776;9.204;2022-12-15T09:26:25;4.57;;;3.50;;
49510;SDS011;35413;48.776;9.204;2022-12-15T09:28:52;6.93;;;4.53;;
49510;SDS011;35413;48.776;9.204;2022-12-15T09:31:22;5.68;;;3.38;;
49510;SDS011;35413;48.776;9.204;2022-12-15T09:33:49;5.40;;;3.53;;
49510;SDS011;35413;48.776;9.204;2022-12-15T09:36:15;5.72;;;3.80;;
49510;SDS011;35413;48.776;9.204;2022-12-15T09:38:41;4.82;;;3.28;;
49510;SDS011;35413;48.776;9.204;2022-12-15T09:41:08;5.07;;;3.70;;
49510;SDS011;35413;48.776;9.204;2022-12-15T09:43:58;4.80;;;4.00;;
49510;SDS011;35413;48.776;9.204;2022-12-15T09:49:14;5.35;;;3.88;;
49510;SDS011;35413;48.776;9.204;2022-12-15T09:51:45;4.93;;;3.90;;
49510;SDS011;35413;48.776;9.204;2022-12-15T09:54:11;4.72;;;3.53;;
49510;SDS011;35413;48.776;9.204;2022-12-15T09:56:45;4.78;;;3.38;;
49510;SDS011;35413;48.776;9.204;2022-12-15T09:59:25;5.43;;;3.78;;
49510;SDS011;35413;48.776;9.204;2022-12-15T10:07:07;4.68;;;3.58;;
49510;SDS011;35413;48.776;9.204;2022-12-15T10:09:37;5.72;;;4.20;;
49510;SDS011;35413;48.776;9.204;2022-12-15T10:12:11;4.90;;;3.72;;
49510;SDS011;35413;48.776;9.204;2022-12-15T10:14:53;4.72;;;3.05;;
49510;SDS011;35413;48.776;9.204;2022-12-15T10:17:27;5.25;;;3.85;;
49510;SDS011;35413;48.776;9.204;2022-12-15T10:22:24;6.07;;;3.65;;
49510;SDS011;35413;48.776;9.204;2022-12-15T10:24:50;6.78;;;5.55;;
49510;SDS011;35413;48.776;9.204;2022-12-15T10:29:58;6.10;;;3.53;;
49510;SDS011;35413;48.776;9.204;2022-12-15T10:35:14;6.22;;;3.55;;
49510;SDS011;35413;48.776;9.204;2022-12-15T10:37:40;7.45;;;3.80;;
49510;SDS011;35413;48.776;9.204;2022-12-15T10:40:06;6.80;;;3.83;;
49510;SDS011;35413;48.776;9.204;2022-12-15T10:42:32;5.05;;;3.35;;
49510;SDS011;35413;48.776;9.204;2022-12-15T10:45:21;7.95;;;3.80;;
49510;SDS011;35413;48.776;9.204;2022-12-15T10:47:57;7.68;;;4.05;;
49510;SDS011;35413;48.776;9.204;2022-12-15T10:50:23;11.05;;;4.05;;
49510;SDS011;35413;48.776;9.204;2022-12-15T10:52:51;5.68;;;4.22;;
49510;SDS011;35413;48.776;9.204;2022-12-15T10:58:02;6.80;;;3.88;;
49510;SDS011;35413;48.776;9.204;2022-12-15T11:00:29;4.97;;;3.35;;
49510;SDS011;35413;48.776;9.204;2022-12-15T11:02:56;7.25;;;3.50;;
49510;SDS011;35413;48.776;9.204;2022-12-15T11:05:22;6.00;;;4.50;;
49510;SDS011;35413;48.776;9.204;2022-12-15T11:07:52;5.10;;;3.53;;
49510;SDS011;35413;48.776;9.204;2022-12-15T11:10:22;5.35;;;3.70;;
49510;SDS011;35413;48.776;9.204;2022-12-15T11:15:38;6.20;;;3.92;;
49510;SDS011;35413;48.776;9.204;2022-12-15T11:18:07;7.18;;;3.97;;
49510;SDS011;35413;48.776;9.204;2022-12-15T11:20:42;6.13;;;4.32;;
49510;SDS011;35413;48.776;9.204;2022-12-15T11:23:20;7.18;;;4.47;;
49510;SDS011;35413;48.776;9.204;2022-12-15T11:25:51;7.70;;;4.25;;
49510;SDS011;35413;48.776;9.204;2022-12-15T11:28:19;5.22;;;3.88;;
49510;SDS011;35413;48.776;9.204;2022-12-15T11:30:55;8.45;;;4.22;;
49510;SDS011;35413;48.776;9.204;2022-12-15T11:33:21;8.60;;;4.45;;
49510;SDS011;35413;48.776;9.204;2022-12-15T11:35:56;6.88;;;4.97;;
49510;SDS011;35413;48.776;9.204;2022-12-15T11:40:51;7.38;;;4.45;;
49510;SDS011;35413;48.776;9.204;2022-12-15T11:48:47;5.07;;;3.83;;
49510;SDS011;35413;48.776;9.204;2022-12-15T11:51:30;5.57;;;3.95;;
49510;SDS011;35413;48.776;9.204;2022-12-15T11:54:04;5.22;;;4.10;;
49510;SDS011;35413;48.776;9.204;2022-12-15T11:56:36;6.53;;;3.95;;
49510;SDS011;35413;48.776;9.204;2022-12-15T12:11:46;7.22;;;3.97;;
49510;SDS011;35413;48.776;9.204;2022-12-15T12:16:53;5.15;;;3.58;;
49510;SDS011;35413;48.776;9.204;2022-12-15T12:21:48;5.82;;;3.78;;
49510;SDS011;35413;48.776;9.204;2022-12-15T12:24:25;5.90;;;4.20;;
49510;SDS011;35413;48.776;9.204;2022-12-15T12:26:55;4.47;;;3.85;;
49510;SDS011;35413;48.776;9.204;2022-12-15T12:29:33;5.85;;;4.40;;
49510;SDS011;35413;48.776;9.204;2022-12-15T12:39:45;6.18;;;3.97;;
49510;SDS011;35413;48.776;9.204;2022-12-15T12:42:24;8.35;;;4.53;;
49510;SDS011;35413;48.776;9.204;2022-12-15T12:44:53;4.65;;;3.33;;
49510;SDS011;35413;48.776;9.204;2022-12-15T12:47:23;4.60;;;3.60;;
49510;SDS011;35413;48.776;9.204;2022-12-15T12:49:51;4.38;;;3.60;;
49510;SDS011;35413;48.776;9.204;2022-12-15T12:52:22;5.85;;;4.35;;
49510;SDS011;35413;48.776;9.204;2022-12-15T12:54:56;4.45;;;3.30;;
49510;SDS011;35413;48.776;9.204;2022-12-15T13:05:02;5.03;;;3.78;;
49510;SDS011;35413;48.776;9.204;2022-12-15T13:15:30;5.40;;;4.07;;
49510;SDS011;35413;48.776;9.204;2022-12-15T13:18:14;4.30;;;3.38;;
49510;SDS011;35413;48.776;9.204;2022-12-15T13:20:41;5.18;;;3.50;;
49510;SDS011;35413;48.776;9.204;2022-12-15T13:38:58;5.03;;;3.65;;
49510;SDS011;35413;48.776;9.204;2022-12-15T13:41:25;6.15;;;3.90;;
49510;SDS011;35413;48.776;9.204;2022-12-15T13:43:51;5.15;;;4.00;;
49510;SDS011;35413;48.776;9.204;2022-12-15T13:46:27;5.45;;;3.75;;
49510;SDS011;35413;48.776;9.204;2022-12-15T13:59:02;5.88;;;3.28;;
49510;SDS011;35413;48.776;9.204;2022-12-15T14:01:30;5.35;;;3.67;;
49510;SDS011;35413;48.776;9.204;2022-12-15T14:06:29;3.88;;;3.15;;
49510;SDS011;35413;48.776;9.204;2022-12-15T14:08:58;5.43;;;3.85;;
49510;SDS011;35413;48.776;9.204;2022-12-15T14:11:24;5.88;;;3.92;;
49510;SDS011;35413;48.776;9.204;2022-12-15T14:13:52;5.43;;;3.75;;
49510;SDS011;35413;48.776;9.204;2022-12-15T14:16:20;5.40;;;3.97;;
49510;SDS011;35413;48.776;9.204;2022-12-15T14:21:27;4.38;;;3.00;;
49510;SDS011;35413;48.776;9.204;2022-12-15T14:23:54;3.90;;;3.28;;
49510;SDS011;35413;48.776;9.204;2022-12-15T14:26:24;5.25;;;3.60;;
49510;SDS011;35413;48.776;9.204;2022-12-15T14:28:57;4.97;;;3.30;;
49510;SDS011;35413;48.776;9.204;2022-12-15T14:31:24;4.82;;;3.95;;
49510;SDS011;35413;48.776;9.204;2022-12-15T14:36:35;4.35;;;3.17;;
49510;SDS011;35413;48.776;9.204;2022-12-15T14:39:03;4.15;;;3.47;;
49510;SDS011;35413;48.776;9.204;2022-12-15T14:41:33;4.13;;;3.30;;
49510;SDS011;35413;48.776;9.204;2022-12-15T14:44:01;4.57;;;3.05;;
49510;SDS011;35413;48.776;9.204;2022-12-15T14:46:29;4.47;;;3.30;;
49510;SDS011;35413;48.776;9.204;2022-12-15T14:48:56;5.05;;;3.35;;
49510;SDS011;35413;48.776;9.204;2022-12-15T14:51:24;4.97;;;3.67;;
49510;SDS011;35413;48.776;9.204;2022-12-15T14:53:52;4.88;;;3.70;;
49510;SDS011;35413;48.776;9.204;2022-12-15T14:58:45;4.68;;;3.47;;
49510;SDS011;35413;48.776;9.204;2022-12-15T15:01:20;3.97;;;3.00;;
49510;SDS011;35413;48.776;9.204;2022-12-15T15:03:54;5.03;;;3.35;;
49510;SDS011;35413;48.776;9.204;2022-12-15T15:06:20;5.18;;;3.60;;
49510;SDS011;35413;48.776;9.204;2022-12-15T15:08:50;4.03;;;3.15;;
49510;SDS011;35413;48.776;9.204;2022-12-15T15:11:28;12.88;;;7.60;;
49510;SDS011;35413;48.776;9.204;2022-12-15T15:13:55;8.07;;;5.88;;
49510;SDS011;35413;48.776;9.204;2022-12-15T15:16:21;8.80;;;4.95;;
49510;SDS011;35413;48.776;9.204;2022-12-15T15:18:48;6.90;;;5.18;;
49510;SDS011;35413;48.776;9.204;2022-12-15T15:21:19;6.72;;;5.07;;
49510;SDS011;35413;48.776;9.204;2022-12-15T15:26:47;6.47;;;4.20;;
49510;SDS011;35413;48.776;9.204;2022-12-15T15:29:35;8.55;;;4.90;;
49510;SDS011;35413;48.776;9.204;2022-12-15T15:32:15;5.85;;;4.35;;
49510;SDS011;35413;48.776;9.204;2022-12-15T15:34:41;6.05;;;4.40;;
49510;SDS011;35413;48.776;9.204;2022-12-15T15:37:16;6.45;;;4.65;;
49510;SDS011;35413;48.776;9.204;2022-12-15T15:39:42;5.35;;;4.07;;
49510;SDS011;35413;48.776;9.204;2022-12-15T15:42:11;6.05;;;4.55;;
49510;SDS011;35413;48.776;9.204;2022-12-15T15:44:38;6.80;;;4.10;;
49510;SDS011;35413;48.776;9.204;2022-12-15T15:47:04;6.03;;;4.53;;
49510;SDS011;35413;48.776;9.204;2022-12-15T15:49:31;7.05;;;4.30;;
49510;SDS011;35413;48.776;9.204;2022-12-15T15:51:58;7.32;;;4.45;;
49510;SDS011;35413;48.776;9.204;2022-12-15T15:54:24;6.72;;;4.47;;
49510;SDS011;35413;48.776;9.204;2022-12-15T15:56:52;6.43;;;4.00;;
49510;SDS011;35413;48.776;9.204;2022-12-15T15:59:19;5.53;;;3.92;;
49510;SDS011;35413;48.776;9.204;2022-12-15T16:01:47;6.35;;;4.53;;
49510;SDS011;35413;48.776;9.204;2022-12-15T16:04:14;5.28;;;4.13;;
49510;SDS011;35413;48.776;9.204;2022-12-15T16:06:40;7.53;;;5.10;;
49510;SDS011;35413;48.776;9.204;2022-12-15T16:09:06;7.35;;;4.03;;
49510;SDS011;35413;48.776;9.204;2022-12-15T16:11:32;7.18;;;4.13;;
49510;SDS011;35413;48.776;9.204;2022-12-15T16:13:59;6.03;;;4.10;;
49510;SDS011;35413;48.776;9.204;2022-12-15T16:16:34;6.47;;;4.25;;
49510;SDS011;35413;48.776;9.204;2022-12-15T16:19:00;7.10;;;4.97;;
49510;SDS011;35413;48.776;9.204;2022-12-15T16:21:27;7.85;;;6.40;;
49510;SDS011;35413;48.776;9.204;2022-12-15T16:23:53;8.15;;;5.00;;
49510;SDS011;35413;48.776;9.204;2022-12-15T16:26:22;7.18;;;5.03;;
49510;SDS011;35413;48.776;9.204;2022-12-15T16:28:50;10.55;;;5.53;;
49510;SDS011;35413;48.776;9.204;2022-12-15T16:31:25;8.55;;;5.28;;
49510;SDS011;35413;48.776;9.204;2022-12-15T16:33:52;8.43;;;5.43;;
49510;SDS011;35413;48.776;9.204;2022-12-15T16:36:19;5.93;;;4.43;;
49510;SDS011;35413;48.776;9.204;2022-12-15T16:38:45;6.57;;;5.20;;
49510;SDS011;35413;48.776;9.204;2022-12-15T16:41:11;8.00;;;4.88;;
49510;SDS011;35413;48.776;9.204;2022-12-15T16:43:39;6.97;;;5.07;;
49510;SDS011;35413;48.776;9.204;2022-12-15T16:46:05;7.25;;;5.13;;
49510;SDS011;35413;48.776;9.204;2022-12-15T16:48:31;10.23;;;5.35;;
49510;SDS011;35413;48.776;9.204;2022-12-15T16:50:57;6.70;;;4.72;;
49510;SDS011;35413;48.776;9.204;2022-12-15T16:53:24;6.30;;;4.35;;
49510;SDS011;35413;48.776;9.204;2022-12-15T16:55:54;6.70;;;4.60;;
49510;SDS011;35413;48.776;9.204;2022-12-15T16:58:21;5.57;;;4.40;;
49510;SDS011;35413;48.776;9.204;2022-12-15T17:00:47;7.82;;;4.38;;
49510;SDS011;35413;48.776;9.204;2022-12-15T17:03:14;7.30;;;4.55;;
49510;SDS011;35413;48.776;9.204;2022-12-15T17:05:41;6.13;;;4.80;;
49510;SDS011;35413;48.776;9.204;2022-12-15T17:08:32;5.63;;;4.25;;
49510;SDS011;35413;48.776;9.204;2022-12-15T17:10:54;6.78;;;4.18;;
49510;SDS011;35413;48.776;9.204;2022-12-15T17:13:24;5.53;;;4.10;;
49510;SDS011;35413;48.776;9.204;2022-12-15T17:15:52;5.25;;;3.95;;
49510;SDS011;35413;48.776;9.204;2022-12-15T17:18:18;6.30;;;4.57;;
49510;SDS011;35413;48.776;9.204;2022-12-15T17:20:44;5.68;;;4.10;;